Thunder radar more information blitzortung!


Rain radar  rain snow radar



Ingen spesiell oppmerksomhet nødvendig.    Det er ingen advarsler

Nearby METAR Reports

   
ENZV - Stavanger
Oppdatert: Jul 21 2019 6:50 pm
Delvis overskyet  
Delvis overskyet  
   Vind: VNV 2.1 m/s
Vind: VNV 2.1 m/s
Temperatur: 17°C
Duggpunkt: 11°C
Luftfuktighet: 68%
Barometer: 1016 hPa
Skyer: Partly Cloudy
Sikt: More than 10 km
Detaljer skyer: Delvis overskyet 2000 ft
ENZV 211650Z 29004KT 250V340 9999 SCT020 17/11 Q1016 NOSIG
ENCN - Kristiansand
Oppdatert: Jul 21 2019 6:50 pm
Noen skyer  
Noen skyer  
   Vind: VNV 4.1 m/s
Vind: VNV 4.1 m/s
Temperatur: 21°C
Duggpunkt: 11°C
Luftfuktighet: 53%
Barometer: 1013 hPa
Skyer: Few Clouds
Sikt: More than 10 km
Detaljer skyer: Noen skyer 3000 ft,
Noen skyer 4000 ft
ENCN 211650Z 29008KT 230V320 9999 FEW030TCU FEW040 21/11 Q1013
ENBR - Bergen
Oppdatert: Jul 21 2019 6:50 pm
For det meste Overskyet  
For det meste Overskyet  
   Vind: VEST 3.1 m/s
Vind: VEST 3.1 m/s
Temperatur: 14°C
Duggpunkt: 11°C
Luftfuktighet: 82%
Barometer: 1015 hPa
Skyer: Mostly Cloudy
Sikt: More than 10 km
Detaljer skyer: Noen skyer 1800 ft,
Delvis overskyet 2200 ft,
For det meste Overskyet 2700 ft
ENBR 211650Z 26006KT 9999 FEW018 SCT022 BKN027 14/11 Q1015 NOSIG RMK WIND 1200FT 26006KT
ENGM - Oslo
Oppdatert: Jul 21 2019 6:50 pm
Lette byger, Regn, For det meste Overskyet  
Lette byger, Regn, For det meste Overskyet  
   Vind: Sør 4.6 m/s
Vind: Sør 4.6 m/s
Temperatur: 16°C
Duggpunkt: 15°C
Luftfuktighet: 94%
Barometer: 1009 hPa
Skyer: Mostly Cloudy
Sikt: More than 10 km
Detaljer skyer: Noen skyer 400 ft,
Noen skyer 2000 ft,
For det meste Overskyet 3200 ft
ENGM 211650Z 17009KT 9999 -SHRA FEW004 FEW020CB BKN032 16/15 Q1009 RESHRA TEMPO 4000 SHRA BKN012
ENVA - Trondheim
Oppdatert: Jul 21 2019 6:50 pm
For det meste Overskyet  
For det meste Overskyet  
   Vind: ØSØ 2.1 m/s
Vind: ØSØ 2.1 m/s
Temperatur: 20°C
Duggpunkt: 15°C
Luftfuktighet: 73%
Barometer: 1008 hPa
Skyer: Mostly Cloudy
Sikt: More than 10 km
Detaljer skyer: Noen skyer 5200 ft,
For det meste Overskyet 7200 ft
ENVA 211650Z 11004KT 060V150 9999 FEW052 BKN072 20/15 Q1008 RMK WIND 670FT 16014KT
ENTC - Tromsø
Oppdatert: Jul 21 2019 6:50 pm
Noen skyer  
Noen skyer  
   Vind: Nord 4.1 m/s
Vind: Nord 4.1 m/s
Temperatur: 19°C
Duggpunkt: 11°C
Luftfuktighet: 60%
Barometer: 1010 hPa
Skyer: Few Clouds
Sikt: More than 10 km
Detaljer skyer: Noen skyer 4500 ft
ENTC 211650Z 01008KT 9999 FEW045 19/11 Q1010 NOSIG RMK WIND 2600FT 22004KT

Script utviklet av  Saratoga-weather.org Tilpasset for tamplaten av  Weerstation Leuven

Du finner vår vær info også på:

European Weather Network

WeatherCloud

Weather Underground

AWEKAS

HAMweather, WeatherForYou, PWS Weather

Utrustning vi bruker:

vær-station
Davis VP2

vær-programmet
Weather Display

Davis VP2

Weather Display